sensor_id;sensor_type;location;lat;lon;timestamp;P1;durP1;ratioP1;P2;durP2;ratioP2
12212;SDS011;6169;44.158;22.788;2023-03-24T00:00:58;22.05;;;14.00;;
12212;SDS011;6169;44.158;22.788;2023-03-24T00:06:02;23.25;;;14.25;;
12212;SDS011;6169;44.158;22.788;2023-03-24T00:11:07;24.63;;;15.10;;
12212;SDS011;6169;44.158;22.788;2023-03-24T00:16:13;22.25;;;14.05;;
12212;SDS011;6169;44.158;22.788;2023-03-24T00:21:19;18.75;;;14.40;;
12212;SDS011;6169;44.158;22.788;2023-03-24T00:26:23;22.50;;;15.48;;
12212;SDS011;6169;44.158;22.788;2023-03-24T00:31:27;21.50;;;14.85;;
12212;SDS011;6169;44.158;22.788;2023-03-24T00:36:30;20.80;;;13.25;;
12212;SDS011;6169;44.158;22.788;2023-03-24T00:41:32;18.77;;;13.68;;
12212;SDS011;6169;44.158;22.788;2023-03-24T00:46:36;16.10;;;12.38;;
12212;SDS011;6169;44.158;22.788;2023-03-24T00:51:39;16.77;;;11.45;;
12212;SDS011;6169;44.158;22.788;2023-03-24T00:56:42;22.25;;;13.27;;
12212;SDS011;6169;44.158;22.788;2023-03-24T01:01:50;22.00;;;14.82;;
12212;SDS011;6169;44.158;22.788;2023-03-24T01:06:52;22.00;;;13.60;;
12212;SDS011;6169;44.158;22.788;2023-03-24T01:11:57;20.95;;;16.33;;
12212;SDS011;6169;44.158;22.788;2023-03-24T01:17:01;22.05;;;13.77;;
12212;SDS011;6169;44.158;22.788;2023-03-24T01:22:05;23.58;;;15.20;;
12212;SDS011;6169;44.158;22.788;2023-03-24T01:27:08;23.02;;;15.15;;
12212;SDS011;6169;44.158;22.788;2023-03-24T01:32:12;19.23;;;13.82;;
12212;SDS011;6169;44.158;22.788;2023-03-24T01:37:14;26.15;;;15.75;;
12212;SDS011;6169;44.158;22.788;2023-03-24T01:42:17;24.75;;;15.57;;
12212;SDS011;6169;44.158;22.788;2023-03-24T01:47:22;23.60;;;15.13;;
12212;SDS011;6169;44.158;22.788;2023-03-24T01:52:25;21.38;;;14.57;;
12212;SDS011;6169;44.158;22.788;2023-03-24T01:57:31;25.40;;;15.18;;
12212;SDS011;6169;44.158;22.788;2023-03-24T02:02:36;24.20;;;15.45;;
12212;SDS011;6169;44.158;22.788;2023-03-24T02:07:43;18.85;;;13.27;;
12212;SDS011;6169;44.158;22.788;2023-03-24T02:12:51;19.58;;;13.93;;
12212;SDS011;6169;44.158;22.788;2023-03-24T02:17:57;21.13;;;13.25;;
12212;SDS011;6169;44.158;22.788;2023-03-24T02:29:03;21.03;;;13.87;;
12212;SDS011;6169;44.158;22.788;2023-03-24T02:34:39;17.27;;;12.43;;
12212;SDS011;6169;44.158;22.788;2023-03-24T02:40:08;18.03;;;12.23;;
12212;SDS011;6169;44.158;22.788;2023-03-24T02:45:31;17.15;;;12.75;;
12212;SDS011;6169;44.158;22.788;2023-03-24T02:50:38;21.00;;;14.47;;
12212;SDS011;6169;44.158;22.788;2023-03-24T02:55:49;21.07;;;15.33;;
12212;SDS011;6169;44.158;22.788;2023-03-24T03:00:57;26.10;;;16.53;;
12212;SDS011;6169;44.158;22.788;2023-03-24T03:06:05;27.13;;;16.50;;
12212;SDS011;6169;44.158;22.788;2023-03-24T03:11:15;24.92;;;16.27;;
12212;SDS011;6169;44.158;22.788;2023-03-24T03:16:20;29.23;;;16.63;;
12212;SDS011;6169;44.158;22.788;2023-03-24T03:21:25;24.73;;;16.33;;
12212;SDS011;6169;44.158;22.788;2023-03-24T03:26:37;23.47;;;16.73;;
12212;SDS011;6169;44.158;22.788;2023-03-24T03:31:43;24.67;;;15.80;;
12212;SDS011;6169;44.158;22.788;2023-03-24T03:36:53;25.52;;;17.05;;
12212;SDS011;6169;44.158;22.788;2023-03-24T03:41:59;25.10;;;15.37;;
12212;SDS011;6169;44.158;22.788;2023-03-24T03:47:02;23.60;;;15.07;;
12212;SDS011;6169;44.158;22.788;2023-03-24T03:52:05;23.77;;;16.17;;
12212;SDS011;6169;44.158;22.788;2023-03-24T03:57:09;26.37;;;16.87;;
12212;SDS011;6169;44.158;22.788;2023-03-24T04:02:18;21.13;;;14.23;;
12212;SDS011;6169;44.158;22.788;2023-03-24T04:07:31;24.40;;;15.33;;
12212;SDS011;6169;44.158;22.788;2023-03-24T04:12:49;23.10;;;15.68;;
12212;SDS011;6169;44.158;22.788;2023-03-24T04:18:10;23.53;;;15.97;;
12212;SDS011;6169;44.158;22.788;2023-03-24T04:23:27;21.42;;;14.15;;
12212;SDS011;6169;44.158;22.788;2023-03-24T04:28:41;24.57;;;15.87;;
12212;SDS011;6169;44.158;22.788;2023-03-24T04:33:52;23.80;;;15.90;;
12212;SDS011;6169;44.158;22.788;2023-03-24T04:39:02;23.27;;;15.17;;
12212;SDS011;6169;44.158;22.788;2023-03-24T04:44:06;21.17;;;14.80;;
12212;SDS011;6169;44.158;22.788;2023-03-24T04:49:10;23.77;;;15.47;;
12212;SDS011;6169;44.158;22.788;2023-03-24T04:54:12;21.13;;;13.97;;
12212;SDS011;6169;44.158;22.788;2023-03-24T04:59:16;22.27;;;14.47;;
12212;SDS011;6169;44.158;22.788;2023-03-24T05:04:19;21.03;;;14.47;;
12212;SDS011;6169;44.158;22.788;2023-03-24T05:09:23;27.83;;;18.17;;
12212;SDS011;6169;44.158;22.788;2023-03-24T05:14:27;31.93;;;19.93;;
12212;SDS011;6169;44.158;22.788;2023-03-24T05:19:29;24.90;;;17.17;;
12212;SDS011;6169;44.158;22.788;2023-03-24T05:24:32;30.77;;;19.00;;
12212;SDS011;6169;44.158;22.788;2023-03-24T05:29:36;31.15;;;20.17;;
12212;SDS011;6169;44.158;22.788;2023-03-24T05:34:38;25.88;;;18.90;;
12212;SDS011;6169;44.158;22.788;2023-03-24T05:39:40;29.17;;;19.77;;
12212;SDS011;6169;44.158;22.788;2023-03-24T05:44:43;28.88;;;19.95;;
12212;SDS011;6169;44.158;22.788;2023-03-24T05:49:46;28.05;;;19.00;;
12212;SDS011;6169;44.158;22.788;2023-03-24T05:54:48;36.42;;;18.50;;
12212;SDS011;6169;44.158;22.788;2023-03-24T05:59:53;24.95;;;17.73;;
12212;SDS011;6169;44.158;22.788;2023-03-24T06:04:55;25.55;;;17.90;;
12212;SDS011;6169;44.158;22.788;2023-03-24T06:09:58;27.42;;;18.88;;
12212;SDS011;6169;44.158;22.788;2023-03-24T06:15:04;30.38;;;20.27;;
12212;SDS011;6169;44.158;22.788;2023-03-24T06:20:07;32.17;;;20.15;;
12212;SDS011;6169;44.158;22.788;2023-03-24T06:25:15;26.90;;;19.30;;
12212;SDS011;6169;44.158;22.788;2023-03-24T06:30:21;27.40;;;18.95;;
12212;SDS011;6169;44.158;22.788;2023-03-24T06:35:23;32.17;;;19.70;;
12212;SDS011;6169;44.158;22.788;2023-03-24T06:40:25;29.50;;;19.63;;
12212;SDS011;6169;44.158;22.788;2023-03-24T06:45:29;29.77;;;17.90;;
12212;SDS011;6169;44.158;22.788;2023-03-24T06:50:31;30.52;;;20.60;;
12212;SDS011;6169;44.158;22.788;2023-03-24T06:55:34;29.65;;;19.85;;
12212;SDS011;6169;44.158;22.788;2023-03-24T07:00:38;29.67;;;20.55;;
12212;SDS011;6169;44.158;22.788;2023-03-24T07:05:41;30.08;;;20.38;;
12212;SDS011;6169;44.158;22.788;2023-03-24T07:10:44;33.70;;;21.45;;
12212;SDS011;6169;44.158;22.788;2023-03-24T07:15:48;29.20;;;20.30;;
12212;SDS011;6169;44.158;22.788;2023-03-24T07:20:51;33.85;;;20.30;;
12212;SDS011;6169;44.158;22.788;2023-03-24T07:25:53;27.50;;;22.65;;
12212;SDS011;6169;44.158;22.788;2023-03-24T07:31:00;33.03;;;21.52;;
12212;SDS011;6169;44.158;22.788;2023-03-24T07:36:03;30.52;;;20.55;;
12212;SDS011;6169;44.158;22.788;2023-03-24T07:41:06;28.67;;;20.85;;
12212;SDS011;6169;44.158;22.788;2023-03-24T07:46:10;31.65;;;21.40;;
12212;SDS011;6169;44.158;22.788;2023-03-24T07:51:12;38.30;;;25.17;;
12212;SDS011;6169;44.158;22.788;2023-03-24T07:56:14;28.88;;;22.20;;
12212;SDS011;6169;44.158;22.788;2023-03-24T08:01:18;31.38;;;21.23;;
12212;SDS011;6169;44.158;22.788;2023-03-24T08:06:20;34.58;;;24.75;;
12212;SDS011;6169;44.158;22.788;2023-03-24T08:11:22;31.00;;;21.23;;
12212;SDS011;6169;44.158;22.788;2023-03-24T08:16:26;29.05;;;20.80;;
12212;SDS011;6169;44.158;22.788;2023-03-24T08:21:28;32.60;;;19.83;;
12212;SDS011;6169;44.158;22.788;2023-03-24T08:26:30;31.38;;;22.40;;
12212;SDS011;6169;44.158;22.788;2023-03-24T08:31:38;27.95;;;20.75;;
12212;SDS011;6169;44.158;22.788;2023-03-24T08:36:40;29.35;;;21.00;;
12212;SDS011;6169;44.158;22.788;2023-03-24T08:41:42;27.02;;;19.33;;
12212;SDS011;6169;44.158;22.788;2023-03-24T08:46:47;27.40;;;20.35;;
12212;SDS011;6169;44.158;22.788;2023-03-24T08:51:49;26.40;;;21.52;;
12212;SDS011;6169;44.158;22.788;2023-03-24T08:56:51;19.92;;;16.65;;
12212;SDS011;6169;44.158;22.788;2023-03-24T09:01:55;22.40;;;14.55;;
12212;SDS011;6169;44.158;22.788;2023-03-24T09:06:57;24.20;;;14.73;;
12212;SDS011;6169;44.158;22.788;2023-03-24T09:11:59;20.50;;;14.00;;
12212;SDS011;6169;44.158;22.788;2023-03-24T09:17:03;16.50;;;12.23;;
12212;SDS011;6169;44.158;22.788;2023-03-24T09:22:05;18.65;;;13.65;;
12212;SDS011;6169;44.158;22.788;2023-03-24T09:27:07;16.95;;;12.52;;
12212;SDS011;6169;44.158;22.788;2023-03-24T09:32:11;15.93;;;8.80;;
12212;SDS011;6169;44.158;22.788;2023-03-24T09:37:13;15.85;;;10.95;;
12212;SDS011;6169;44.158;22.788;2023-03-24T09:42:18;21.55;;;14.23;;
12212;SDS011;6169;44.158;22.788;2023-03-24T09:47:27;17.77;;;13.50;;
12212;SDS011;6169;44.158;22.788;2023-03-24T09:52:32;11.05;;;9.20;;
12212;SDS011;6169;44.158;22.788;2023-03-24T09:57:37;13.70;;;10.77;;
12212;SDS011;6169;44.158;22.788;2023-03-24T10:02:43;13.40;;;9.82;;
12212;SDS011;6169;44.158;22.788;2023-03-24T10:07:47;7.90;;;6.85;;
12212;SDS011;6169;44.158;22.788;2023-03-24T10:12:54;8.88;;;6.85;;
12212;SDS011;6169;44.158;22.788;2023-03-24T10:18:09;8.63;;;6.45;;
12212;SDS011;6169;44.158;22.788;2023-03-24T10:23:26;10.00;;;7.25;;
12212;SDS011;6169;44.158;22.788;2023-03-24T10:28:35;7.63;;;6.60;;
12212;SDS011;6169;44.158;22.788;2023-03-24T10:33:45;10.35;;;8.32;;
12212;SDS011;6169;44.158;22.788;2023-03-24T10:38:47;12.13;;;9.63;;
12212;SDS011;6169;44.158;22.788;2023-03-24T10:43:50;7.82;;;5.95;;
12212;SDS011;6169;44.158;22.788;2023-03-24T10:49:05;6.88;;;5.93;;
12212;SDS011;6169;44.158;22.788;2023-03-24T10:54:10;5.63;;;4.78;;
12212;SDS011;6169;44.158;22.788;2023-03-24T10:59:18;8.00;;;5.53;;
12212;SDS011;6169;44.158;22.788;2023-03-24T11:04:26;10.50;;;5.55;;
12212;SDS011;6169;44.158;22.788;2023-03-24T11:09:37;6.65;;;4.30;;
12212;SDS011;6169;44.158;22.788;2023-03-24T11:14:43;5.97;;;4.35;;
12212;SDS011;6169;44.158;22.788;2023-03-24T11:19:54;7.90;;;6.25;;
12212;SDS011;6169;44.158;22.788;2023-03-24T11:24:57;8.98;;;8.07;;
12212;SDS011;6169;44.158;22.788;2023-03-24T11:29:59;5.30;;;4.57;;
12212;SDS011;6169;44.158;22.788;2023-03-24T11:35:04;3.97;;;3.58;;
12212;SDS011;6169;44.158;22.788;2023-03-24T11:40:19;4.63;;;3.65;;
12212;SDS011;6169;44.158;22.788;2023-03-24T11:45:25;5.00;;;3.78;;
12212;SDS011;6169;44.158;22.788;2023-03-24T11:50:33;4.95;;;4.47;;
12212;SDS011;6169;44.158;22.788;2023-03-24T11:55:41;6.97;;;5.55;;
12212;SDS011;6169;44.158;22.788;2023-03-24T12:00:47;7.18;;;4.40;;
12212;SDS011;6169;44.158;22.788;2023-03-24T12:05:58;5.35;;;4.25;;
12212;SDS011;6169;44.158;22.788;2023-03-24T12:11:10;6.95;;;5.57;;
12212;SDS011;6169;44.158;22.788;2023-03-24T12:16:23;4.47;;;4.07;;
12212;SDS011;6169;44.158;22.788;2023-03-24T12:21:45;5.63;;;4.72;;
12212;SDS011;6169;44.158;22.788;2023-03-24T12:26:56;4.68;;;3.85;;
12212;SDS011;6169;44.158;22.788;2023-03-24T12:32:03;2.92;;;2.63;;
12212;SDS011;6169;44.158;22.788;2023-03-24T12:37:19;7.53;;;3.90;;
12212;SDS011;6169;44.158;22.788;2023-03-24T12:42:25;4.87;;;2.73;;
12212;SDS011;6169;44.158;22.788;2023-03-24T12:47:44;4.35;;;3.78;;
12212;SDS011;6169;44.158;22.788;2023-03-24T12:53:08;4.57;;;3.65;;
12212;SDS011;6169;44.158;22.788;2023-03-24T12:58:25;5.72;;;4.55;;
12212;SDS011;6169;44.158;22.788;2023-03-24T13:03:35;6.05;;;3.63;;
12212;SDS011;6169;44.158;22.788;2023-03-24T13:08:43;7.00;;;3.88;;
12212;SDS011;6169;44.158;22.788;2023-03-24T13:13:50;4.30;;;3.90;;
12212;SDS011;6169;44.158;22.788;2023-03-24T13:18:53;4.97;;;3.65;;
12212;SDS011;6169;44.158;22.788;2023-03-24T13:24:01;5.20;;;4.40;;
12212;SDS011;6169;44.158;22.788;2023-03-24T13:29:12;6.70;;;4.23;;
12212;SDS011;6169;44.158;22.788;2023-03-24T13:34:24;4.72;;;4.03;;
12212;SDS011;6169;44.158;22.788;2023-03-24T13:39:32;7.57;;;3.85;;
12212;SDS011;6169;44.158;22.788;2023-03-24T13:44:37;5.22;;;3.40;;
12212;SDS011;6169;44.158;22.788;2023-03-24T13:49:44;4.65;;;3.28;;
12212;SDS011;6169;44.158;22.788;2023-03-24T13:54:57;4.25;;;3.33;;
12212;SDS011;6169;44.158;22.788;2023-03-24T14:00:06;4.18;;;3.33;;
12212;SDS011;6169;44.158;22.788;2023-03-24T14:05:39;4.57;;;3.38;;
12212;SDS011;6169;44.158;22.788;2023-03-24T14:10:56;4.40;;;3.88;;
12212;SDS011;6169;44.158;22.788;2023-03-24T14:15:59;3.67;;;3.30;;
12212;SDS011;6169;44.158;22.788;2023-03-24T14:21:34;5.00;;;3.15;;
12212;SDS011;6169;44.158;22.788;2023-03-24T14:26:39;2.47;;;2.25;;
12212;SDS011;6169;44.158;22.788;2023-03-24T14:31:41;7.22;;;3.38;;
12212;SDS011;6169;44.158;22.788;2023-03-24T14:36:46;4.72;;;3.95;;
12212;SDS011;6169;44.158;22.788;2023-03-24T14:42:02;3.53;;;3.22;;
12212;SDS011;6169;44.158;22.788;2023-03-24T14:47:29;5.18;;;3.13;;
12212;SDS011;6169;44.158;22.788;2023-03-24T14:52:34;4.90;;;3.90;;
12212;SDS011;6169;44.158;22.788;2023-03-24T14:57:43;4.53;;;3.42;;
12212;SDS011;6169;44.158;22.788;2023-03-24T15:02:48;5.30;;;3.90;;
12212;SDS011;6169;44.158;22.788;2023-03-24T15:08:02;7.78;;;4.32;;
12212;SDS011;6169;44.158;22.788;2023-03-24T15:13:34;4.35;;;3.65;;
12212;SDS011;6169;44.158;22.788;2023-03-24T15:18:42;3.78;;;3.33;;
12212;SDS011;6169;44.158;22.788;2023-03-24T15:23:48;10.68;;;4.50;;
12212;SDS011;6169;44.158;22.788;2023-03-24T15:28:56;19.90;;;12.85;;
12212;SDS011;6169;44.158;22.788;2023-03-24T15:34:03;11.13;;;6.40;;
12212;SDS011;6169;44.158;22.788;2023-03-24T15:39:16;3.55;;;3.13;;
12212;SDS011;6169;44.158;22.788;2023-03-24T15:44:23;8.00;;;5.18;;
12212;SDS011;6169;44.158;22.788;2023-03-24T15:49:29;5.00;;;3.60;;
12212;SDS011;6169;44.158;22.788;2023-03-24T15:54:36;3.67;;;3.28;;
12212;SDS011;6169;44.158;22.788;2023-03-24T15:59:46;4.00;;;3.08;;
12212;SDS011;6169;44.158;22.788;2023-03-24T16:04:49;5.03;;;3.97;;
12212;SDS011;6169;44.158;22.788;2023-03-24T16:09:54;4.75;;;3.38;;
12212;SDS011;6169;44.158;22.788;2023-03-24T16:14:59;6.03;;;3.08;;
12212;SDS011;6169;44.158;22.788;2023-03-24T16:20:04;6.47;;;3.55;;
12212;SDS011;6169;44.158;22.788;2023-03-24T16:25:08;4.97;;;3.72;;
12212;SDS011;6169;44.158;22.788;2023-03-24T16:30:16;6.45;;;3.53;;
12212;SDS011;6169;44.158;22.788;2023-03-24T16:35:20;7.15;;;4.55;;
12212;SDS011;6169;44.158;22.788;2023-03-24T16:40:25;5.07;;;3.92;;
12212;SDS011;6169;44.158;22.788;2023-03-24T16:45:35;7.03;;;3.65;;
12212;SDS011;6169;44.158;22.788;2023-03-24T16:50:38;6.78;;;4.05;;
12212;SDS011;6169;44.158;22.788;2023-03-24T16:55:42;4.70;;;2.95;;
12212;SDS011;6169;44.158;22.788;2023-03-24T17:00:47;5.82;;;3.53;;
12212;SDS011;6169;44.158;22.788;2023-03-24T17:05:50;4.53;;;3.00;;
12212;SDS011;6169;44.158;22.788;2023-03-24T17:10:53;5.18;;;2.83;;
12212;SDS011;6169;44.158;22.788;2023-03-24T17:15:56;9.82;;;4.28;;
12212;SDS011;6169;44.158;22.788;2023-03-24T17:20:59;7.35;;;3.45;;
12212;SDS011;6169;44.158;22.788;2023-03-24T17:26:01;3.30;;;2.80;;
12212;SDS011;6169;44.158;22.788;2023-03-24T17:31:05;4.72;;;3.38;;
12212;SDS011;6169;44.158;22.788;2023-03-24T17:36:10;4.55;;;3.17;;
12212;SDS011;6169;44.158;22.788;2023-03-24T17:41:15;10.38;;;4.28;;
12212;SDS011;6169;44.158;22.788;2023-03-24T17:46:18;4.45;;;3.38;;
12212;SDS011;6169;44.158;22.788;2023-03-24T17:51:21;13.15;;;7.05;;
12212;SDS011;6169;44.158;22.788;2023-03-24T17:56:23;11.23;;;6.65;;
12212;SDS011;6169;44.158;22.788;2023-03-24T18:01:27;19.05;;;10.93;;
12212;SDS011;6169;44.158;22.788;2023-03-24T18:06:34;14.35;;;8.77;;
12212;SDS011;6169;44.158;22.788;2023-03-24T18:11:37;12.90;;;7.00;;
12212;SDS011;6169;44.158;22.788;2023-03-24T18:16:42;14.43;;;8.00;;
12212;SDS011;6169;44.158;22.788;2023-03-24T18:21:44;40.20;;;10.20;;
12212;SDS011;6169;44.158;22.788;2023-03-24T18:26:48;12.02;;;8.95;;
12212;SDS011;6169;44.158;22.788;2023-03-24T18:31:52;30.58;;;19.02;;
12212;SDS011;6169;44.158;22.788;2023-03-24T18:36:54;24.65;;;16.15;;
12212;SDS011;6169;44.158;22.788;2023-03-24T18:41:58;22.80;;;15.02;;
12212;SDS011;6169;44.158;22.788;2023-03-24T18:47:02;29.83;;;10.32;;
12212;SDS011;6169;44.158;22.788;2023-03-24T18:52:05;10.02;;;6.88;;
12212;SDS011;6169;44.158;22.788;2023-03-24T18:57:08;21.23;;;12.10;;
12212;SDS011;6169;44.158;22.788;2023-03-24T19:02:13;13.10;;;10.55;;
12212;SDS011;6169;44.158;22.788;2023-03-24T19:07:16;23.77;;;14.50;;
12212;SDS011;6169;44.158;22.788;2023-03-24T19:12:25;18.73;;;11.32;;
12212;SDS011;6169;44.158;22.788;2023-03-24T19:17:30;15.57;;;9.00;;
12212;SDS011;6169;44.158;22.788;2023-03-24T19:22:32;15.70;;;9.88;;
12212;SDS011;6169;44.158;22.788;2023-03-24T19:27:35;31.05;;;16.90;;
12212;SDS011;6169;44.158;22.788;2023-03-24T19:32:40;21.10;;;13.00;;
12212;SDS011;6169;44.158;22.788;2023-03-24T19:37:43;26.73;;;13.50;;
12212;SDS011;6169;44.158;22.788;2023-03-24T19:42:46;30.20;;;16.15;;
12212;SDS011;6169;44.158;22.788;2023-03-24T19:47:50;24.00;;;15.57;;
12212;SDS011;6169;44.158;22.788;2023-03-24T19:52:53;29.15;;;15.65;;
12212;SDS011;6169;44.158;22.788;2023-03-24T19:57:55;18.60;;;12.10;;
12212;SDS011;6169;44.158;22.788;2023-03-24T20:03:00;21.10;;;12.35;;
12212;SDS011;6169;44.158;22.788;2023-03-24T20:08:04;15.55;;;10.90;;
12212;SDS011;6169;44.158;22.788;2023-03-24T20:13:07;18.35;;;10.63;;
12212;SDS011;6169;44.158;22.788;2023-03-24T20:18:12;13.68;;;8.60;;
12212;SDS011;6169;44.158;22.788;2023-03-24T20:23:15;10.38;;;6.45;;
12212;SDS011;6169;44.158;22.788;2023-03-24T20:28:18;8.77;;;5.25;;
12212;SDS011;6169;44.158;22.788;2023-03-24T20:33:22;11.23;;;4.80;;
12212;SDS011;6169;44.158;22.788;2023-03-24T20:38:24;15.00;;;9.82;;
12212;SDS011;6169;44.158;22.788;2023-03-24T20:43:28;5.90;;;4.55;;
12212;SDS011;6169;44.158;22.788;2023-03-24T20:48:36;25.75;;;15.77;;
12212;SDS011;6169;44.158;22.788;2023-03-24T20:53:38;11.30;;;6.60;;
12212;SDS011;6169;44.158;22.788;2023-03-24T20:58:41;22.60;;;14.30;;
12212;SDS011;6169;44.158;22.788;2023-03-24T21:03:46;8.25;;;6.00;;
12212;SDS011;6169;44.158;22.788;2023-03-24T21:08:50;9.13;;;4.78;;
12212;SDS011;6169;44.158;22.788;2023-03-24T21:13:53;11.27;;;6.63;;
12212;SDS011;6169;44.158;22.788;2023-03-24T21:18:57;8.02;;;5.78;;
12212;SDS011;6169;44.158;22.788;2023-03-24T21:24:03;15.45;;;9.32;;
12212;SDS011;6169;44.158;22.788;2023-03-24T21:29:05;14.20;;;9.18;;
12212;SDS011;6169;44.158;22.788;2023-03-24T21:34:09;10.63;;;8.32;;
12212;SDS011;6169;44.158;22.788;2023-03-24T21:39:12;12.00;;;9.25;;
12212;SDS011;6169;44.158;22.788;2023-03-24T21:44:16;11.57;;;7.80;;
12212;SDS011;6169;44.158;22.788;2023-03-24T21:49:21;22.10;;;13.07;;
12212;SDS011;6169;44.158;22.788;2023-03-24T21:54:25;16.95;;;11.05;;
12212;SDS011;6169;44.158;22.788;2023-03-24T21:59:27;14.95;;;8.15;;
12212;SDS011;6169;44.158;22.788;2023-03-24T22:04:32;29.52;;;19.60;;
12212;SDS011;6169;44.158;22.788;2023-03-24T22:09:37;17.02;;;10.30;;
12212;SDS011;6169;44.158;22.788;2023-03-24T22:14:39;15.65;;;8.68;;
12212;SDS011;6169;44.158;22.788;2023-03-24T22:19:43;10.50;;;7.70;;
12212;SDS011;6169;44.158;22.788;2023-03-24T22:24:45;11.27;;;7.40;;
12212;SDS011;6169;44.158;22.788;2023-03-24T22:29:47;16.88;;;11.07;;
12212;SDS011;6169;44.158;22.788;2023-03-24T22:34:51;32.95;;;21.48;;
12212;SDS011;6169;44.158;22.788;2023-03-24T22:39:53;29.98;;;16.90;;
12212;SDS011;6169;44.158;22.788;2023-03-24T22:44:55;27.00;;;16.10;;
12212;SDS011;6169;44.158;22.788;2023-03-24T22:49:59;22.30;;;14.13;;
12212;SDS011;6169;44.158;22.788;2023-03-24T22:55:01;24.17;;;13.70;;
12212;SDS011;6169;44.158;22.788;2023-03-24T23:00:03;16.80;;;10.30;;
12212;SDS011;6169;44.158;22.788;2023-03-24T23:05:09;22.95;;;16.17;;
12212;SDS011;6169;44.158;22.788;2023-03-24T23:10:11;15.38;;;9.80;;
12212;SDS011;6169;44.158;22.788;2023-03-24T23:15:13;16.73;;;9.27;;
12212;SDS011;6169;44.158;22.788;2023-03-24T23:20:18;20.80;;;12.32;;
12212;SDS011;6169;44.158;22.788;2023-03-24T23:25:20;14.32;;;10.13;;
12212;SDS011;6169;44.158;22.788;2023-03-24T23:30:22;17.58;;;11.35;;
12212;SDS011;6169;44.158;22.788;2023-03-24T23:35:26;15.60;;;10.63;;
12212;SDS011;6169;44.158;22.788;2023-03-24T23:40:28;16.95;;;10.25;;
12212;SDS011;6169;44.158;22.788;2023-03-24T23:45:31;11.75;;;8.27;;
12212;SDS011;6169;44.158;22.788;2023-03-24T23:50:34;13.82;;;9.30;;
12212;SDS011;6169;44.158;22.788;2023-03-24T23:55:36;14.75;;;10.00;;
